sensor_id;sensor_type;location;lat;lon;timestamp;P1;durP1;ratioP1;P2;durP2;ratioP2
63874;SDS011;51595;24.180;-110.296;2022-11-04T00:02:00;10.35;;;2.30;;
63874;SDS011;51595;24.180;-110.296;2022-11-04T00:04:27;6.90;;;2.22;;
63874;SDS011;51595;24.180;-110.296;2022-11-04T00:06:55;8.85;;;2.25;;
63874;SDS011;51595;24.180;-110.296;2022-11-04T00:09:31;13.75;;;2.40;;
63874;SDS011;51595;24.180;-110.296;2022-11-04T00:11:57;10.73;;;2.50;;
63874;SDS011;51595;24.180;-110.296;2022-11-04T00:14:42;20.65;;;2.70;;
63874;SDS011;51595;24.180;-110.296;2022-11-04T00:17:12;6.32;;;2.20;;
63874;SDS011;51595;24.180;-110.296;2022-11-04T00:19:50;15.07;;;3.17;;
63874;SDS011;51595;24.180;-110.296;2022-11-04T00:22:36;10.23;;;2.17;;
63874;SDS011;51595;24.180;-110.296;2022-11-04T00:25:23;12.35;;;2.38;;
63874;SDS011;51595;24.180;-110.296;2022-11-04T00:28:09;8.93;;;2.50;;
63874;SDS011;51595;24.180;-110.296;2022-11-04T00:30:56;12.27;;;2.20;;
63874;SDS011;51595;24.180;-110.296;2022-11-04T00:33:44;9.13;;;2.10;;
63874;SDS011;51595;24.180;-110.296;2022-11-04T00:36:14;11.68;;;2.50;;
63874;SDS011;51595;24.180;-110.296;2022-11-04T00:38:41;10.25;;;2.25;;
63874;SDS011;51595;24.180;-110.296;2022-11-04T00:41:07;5.53;;;1.83;;
63874;SDS011;51595;24.180;-110.296;2022-11-04T00:43:57;10.05;;;2.15;;
63874;SDS011;51595;24.180;-110.296;2022-11-04T00:46:26;12.75;;;2.55;;
63874;SDS011;51595;24.180;-110.296;2022-11-04T00:48:54;11.48;;;2.05;;
63874;SDS011;51595;24.180;-110.296;2022-11-04T00:51:20;9.57;;;2.40;;
63874;SDS011;51595;24.180;-110.296;2022-11-04T00:53:47;11.57;;;2.10;;
63874;SDS011;51595;24.180;-110.296;2022-11-04T00:56:14;11.80;;;2.65;;
63874;SDS011;51595;24.180;-110.296;2022-11-04T00:58:41;9.65;;;2.40;;
63874;SDS011;51595;24.180;-110.296;2022-11-04T01:01:11;7.22;;;2.60;;
63874;SDS011;51595;24.180;-110.296;2022-11-04T01:03:42;8.68;;;2.35;;
63874;SDS011;51595;24.180;-110.296;2022-11-04T01:06:13;9.75;;;2.20;;
63874;SDS011;51595;24.180;-110.296;2022-11-04T01:08:40;7.43;;;2.47;;
63874;SDS011;51595;24.180;-110.296;2022-11-04T01:11:07;9.73;;;2.25;;
63874;SDS011;51595;24.180;-110.296;2022-11-04T01:13:34;13.38;;;2.45;;
63874;SDS011;51595;24.180;-110.296;2022-11-04T01:16:03;11.00;;;2.63;;
63874;SDS011;51595;24.180;-110.296;2022-11-04T01:18:31;8.75;;;2.10;;
63874;SDS011;51595;24.180;-110.296;2022-11-04T01:21:02;9.98;;;2.40;;
63874;SDS011;51595;24.180;-110.296;2022-11-04T01:23:30;12.15;;;2.60;;
63874;SDS011;51595;24.180;-110.296;2022-11-04T01:25:56;8.45;;;1.92;;
63874;SDS011;51595;24.180;-110.296;2022-11-04T01:28:23;7.40;;;2.35;;
63874;SDS011;51595;24.180;-110.296;2022-11-04T01:30:50;10.07;;;2.80;;
63874;SDS011;51595;24.180;-110.296;2022-11-04T01:33:16;14.07;;;2.63;;
63874;SDS011;51595;24.180;-110.296;2022-11-04T01:35:43;10.70;;;2.40;;
63874;SDS011;51595;24.180;-110.296;2022-11-04T01:38:09;12.43;;;2.30;;
63874;SDS011;51595;24.180;-110.296;2022-11-04T01:40:36;12.35;;;2.40;;
63874;SDS011;51595;24.180;-110.296;2022-11-04T01:43:05;12.55;;;2.05;;
63874;SDS011;51595;24.180;-110.296;2022-11-04T01:45:53;10.38;;;2.55;;
63874;SDS011;51595;24.180;-110.296;2022-11-04T01:48:30;14.15;;;3.05;;
63874;SDS011;51595;24.180;-110.296;2022-11-04T01:50:59;9.50;;;2.10;;
63874;SDS011;51595;24.180;-110.296;2022-11-04T01:53:26;10.13;;;2.47;;
63874;SDS011;51595;24.180;-110.296;2022-11-04T01:56:04;9.60;;;2.25;;
63874;SDS011;51595;24.180;-110.296;2022-11-04T01:58:37;10.27;;;2.13;;
63874;SDS011;51595;24.180;-110.296;2022-11-04T02:01:08;10.10;;;2.30;;
63874;SDS011;51595;24.180;-110.296;2022-11-04T02:03:37;8.25;;;2.22;;
63874;SDS011;51595;24.180;-110.296;2022-11-04T02:06:10;9.82;;;2.30;;
63874;SDS011;51595;24.180;-110.296;2022-11-04T02:08:37;10.65;;;2.55;;
63874;SDS011;51595;24.180;-110.296;2022-11-04T02:11:03;11.15;;;2.28;;
63874;SDS011;51595;24.180;-110.296;2022-11-04T02:13:31;12.85;;;2.40;;
63874;SDS011;51595;24.180;-110.296;2022-11-04T02:16:07;10.55;;;2.50;;
63874;SDS011;51595;24.180;-110.296;2022-11-04T02:26:58;9.13;;;2.85;;
63874;SDS011;51595;24.180;-110.296;2022-11-04T02:29:51;11.13;;;2.83;;
63874;SDS011;51595;24.180;-110.296;2022-11-04T02:32:37;14.82;;;2.55;;
63874;SDS011;51595;24.180;-110.296;2022-11-04T02:38:09;10.27;;;2.70;;
63874;SDS011;51595;24.180;-110.296;2022-11-04T02:46:23;8.77;;;2.42;;
63874;SDS011;51595;24.180;-110.296;2022-11-04T02:49:02;18.40;;;3.22;;
63874;SDS011;51595;24.180;-110.296;2022-11-04T02:51:40;8.85;;;2.50;;
63874;SDS011;51595;24.180;-110.296;2022-11-04T02:54:20;6.60;;;2.25;;
63874;SDS011;51595;24.180;-110.296;2022-11-04T02:56:57;12.15;;;2.42;;
63874;SDS011;51595;24.180;-110.296;2022-11-04T03:00:00;8.57;;;2.58;;
63874;SDS011;51595;24.180;-110.296;2022-11-04T03:02:27;14.30;;;3.28;;
63874;SDS011;51595;24.180;-110.296;2022-11-04T03:05:00;6.93;;;2.20;;
63874;SDS011;51595;24.180;-110.296;2022-11-04T03:07:30;19.98;;;3.35;;
63874;SDS011;51595;24.180;-110.296;2022-11-04T03:10:00;19.08;;;2.58;;
63874;SDS011;51595;24.180;-110.296;2022-11-04T03:12:32;14.45;;;2.53;;
63874;SDS011;51595;24.180;-110.296;2022-11-04T03:15:05;9.55;;;2.78;;
63874;SDS011;51595;24.180;-110.296;2022-11-04T03:17:43;9.35;;;2.53;;
63874;SDS011;51595;24.180;-110.296;2022-11-04T03:20:20;7.75;;;2.50;;
63874;SDS011;51595;24.180;-110.296;2022-11-04T03:22:49;16.23;;;2.40;;
63874;SDS011;51595;24.180;-110.296;2022-11-04T03:25:19;13.60;;;2.83;;
63874;SDS011;51595;24.180;-110.296;2022-11-04T03:30:26;12.80;;;2.73;;
63874;SDS011;51595;24.180;-110.296;2022-11-04T03:33:12;15.80;;;2.75;;
63874;SDS011;51595;24.180;-110.296;2022-11-04T03:36:01;15.23;;;2.63;;
63874;SDS011;51595;24.180;-110.296;2022-11-04T03:38:28;13.88;;;2.80;;
63874;SDS011;51595;24.180;-110.296;2022-11-04T03:40:55;11.38;;;2.75;;
63874;SDS011;51595;24.180;-110.296;2022-11-04T03:43:24;10.40;;;2.33;;
63874;SDS011;51595;24.180;-110.296;2022-11-04T03:45:52;11.73;;;2.63;;
63874;SDS011;51595;24.180;-110.296;2022-11-04T03:48:19;10.75;;;2.47;;
63874;SDS011;51595;24.180;-110.296;2022-11-04T03:50:47;16.55;;;2.75;;
63874;SDS011;51595;24.180;-110.296;2022-11-04T03:53:16;9.48;;;2.55;;
63874;SDS011;51595;24.180;-110.296;2022-11-04T03:56:01;8.80;;;2.15;;
63874;SDS011;51595;24.180;-110.296;2022-11-04T04:01:24;10.45;;;2.47;;
63874;SDS011;51595;24.180;-110.296;2022-11-04T04:06:51;8.18;;;2.60;;
63874;SDS011;51595;24.180;-110.296;2022-11-04T04:09:26;9.43;;;2.70;;
63874;SDS011;51595;24.180;-110.296;2022-11-04T04:12:04;9.95;;;2.50;;
63874;SDS011;51595;24.180;-110.296;2022-11-04T04:14:47;13.05;;;2.58;;
63874;SDS011;51595;24.180;-110.296;2022-11-04T04:20:22;9.77;;;2.45;;
63874;SDS011;51595;24.180;-110.296;2022-11-04T04:22:50;12.90;;;2.47;;
63874;SDS011;51595;24.180;-110.296;2022-11-04T04:25:51;7.30;;;2.33;;
63874;SDS011;51595;24.180;-110.296;2022-11-04T04:28:37;8.40;;;2.53;;
63874;SDS011;51595;24.180;-110.296;2022-11-04T04:31:05;8.05;;;2.33;;
63874;SDS011;51595;24.180;-110.296;2022-11-04T04:33:34;12.52;;;2.45;;
63874;SDS011;51595;24.180;-110.296;2022-11-04T04:36:01;8.68;;;2.70;;
63874;SDS011;51595;24.180;-110.296;2022-11-04T04:38:31;26.30;;;5.40;;
63874;SDS011;51595;24.180;-110.296;2022-11-04T04:41:29;47.30;;;8.38;;
63874;SDS011;51595;24.180;-110.296;2022-11-04T04:44:27;22.42;;;4.35;;
63874;SDS011;51595;24.180;-110.296;2022-11-04T04:47:13;20.27;;;3.53;;
63874;SDS011;51595;24.180;-110.296;2022-11-04T04:49:52;19.35;;;2.15;;
63874;SDS011;51595;24.180;-110.296;2022-11-04T04:52:21;7.30;;;2.00;;
63874;SDS011;51595;24.180;-110.296;2022-11-04T04:54:51;15.80;;;2.10;;
63874;SDS011;51595;24.180;-110.296;2022-11-04T04:57:17;17.30;;;2.88;;
63874;SDS011;51595;24.180;-110.296;2022-11-04T04:59:44;10.07;;;2.20;;
63874;SDS011;51595;24.180;-110.296;2022-11-04T05:02:10;12.52;;;1.63;;
63874;SDS011;51595;24.180;-110.296;2022-11-04T05:04:37;15.00;;;2.00;;
63874;SDS011;51595;24.180;-110.296;2022-11-04T05:07:03;20.30;;;2.30;;
63874;SDS011;51595;24.180;-110.296;2022-11-04T05:09:32;12.73;;;2.45;;
63874;SDS011;51595;24.180;-110.296;2022-11-04T05:11:58;15.35;;;2.70;;
63874;SDS011;51595;24.180;-110.296;2022-11-04T05:14:24;12.88;;;2.33;;
63874;SDS011;51595;24.180;-110.296;2022-11-04T05:16:51;11.68;;;2.05;;
63874;SDS011;51595;24.180;-110.296;2022-11-04T05:19:17;14.55;;;2.17;;
63874;SDS011;51595;24.180;-110.296;2022-11-04T05:21:44;13.82;;;2.25;;
63874;SDS011;51595;24.180;-110.296;2022-11-04T05:24:10;10.50;;;2.00;;
63874;SDS011;51595;24.180;-110.296;2022-11-04T05:26:37;19.38;;;2.75;;
63874;SDS011;51595;24.180;-110.296;2022-11-04T05:29:03;12.70;;;2.90;;
63874;SDS011;51595;24.180;-110.296;2022-11-04T05:31:30;12.18;;;2.15;;
63874;SDS011;51595;24.180;-110.296;2022-11-04T05:33:56;20.95;;;2.45;;
63874;SDS011;51595;24.180;-110.296;2022-11-04T05:36:25;17.05;;;2.40;;
63874;SDS011;51595;24.180;-110.296;2022-11-04T05:38:52;18.20;;;2.63;;
63874;SDS011;51595;24.180;-110.296;2022-11-04T05:41:22;16.02;;;2.33;;
63874;SDS011;51595;24.180;-110.296;2022-11-04T05:43:52;22.17;;;2.80;;
63874;SDS011;51595;24.180;-110.296;2022-11-04T05:46:20;18.20;;;2.45;;
63874;SDS011;51595;24.180;-110.296;2022-11-04T05:48:47;15.73;;;2.53;;
63874;SDS011;51595;24.180;-110.296;2022-11-04T05:51:14;25.05;;;2.95;;
63874;SDS011;51595;24.180;-110.296;2022-11-04T05:53:42;15.88;;;2.30;;
63874;SDS011;51595;24.180;-110.296;2022-11-04T05:56:08;12.13;;;2.50;;
63874;SDS011;51595;24.180;-110.296;2022-11-04T05:58:35;20.38;;;2.97;;
63874;SDS011;51595;24.180;-110.296;2022-11-04T06:03:52;17.48;;;2.70;;
63874;SDS011;51595;24.180;-110.296;2022-11-04T06:06:20;15.50;;;2.35;;
63874;SDS011;51595;24.180;-110.296;2022-11-04T06:08:51;18.10;;;3.13;;
63874;SDS011;51595;24.180;-110.296;2022-11-04T06:11:17;15.38;;;2.75;;
63874;SDS011;51595;24.180;-110.296;2022-11-04T06:13:44;14.02;;;2.60;;
63874;SDS011;51595;24.180;-110.296;2022-11-04T06:16:11;22.42;;;2.92;;
63874;SDS011;51595;24.180;-110.296;2022-11-04T06:18:37;19.02;;;3.35;;
63874;SDS011;51595;24.180;-110.296;2022-11-04T06:23:33;11.98;;;2.95;;
63874;SDS011;51595;24.180;-110.296;2022-11-04T06:26:00;21.88;;;3.20;;
63874;SDS011;51595;24.180;-110.296;2022-11-04T06:28:26;20.13;;;2.30;;
63874;SDS011;51595;24.180;-110.296;2022-11-04T06:30:53;16.35;;;2.35;;
63874;SDS011;51595;24.180;-110.296;2022-11-04T06:33:21;19.35;;;3.30;;
63874;SDS011;51595;24.180;-110.296;2022-11-04T06:35:47;26.98;;;3.10;;
63874;SDS011;51595;24.180;-110.296;2022-11-04T06:38:14;24.45;;;2.53;;
63874;SDS011;51595;24.180;-110.296;2022-11-04T06:40:40;16.40;;;2.45;;
63874;SDS011;51595;24.180;-110.296;2022-11-04T06:43:06;15.68;;;2.55;;
63874;SDS011;51595;24.180;-110.296;2022-11-04T06:45:33;19.85;;;3.45;;
63874;SDS011;51595;24.180;-110.296;2022-11-04T06:47:59;25.85;;;2.95;;
63874;SDS011;51595;24.180;-110.296;2022-11-04T06:50:26;18.15;;;2.88;;
63874;SDS011;51595;24.180;-110.296;2022-11-04T06:52:52;20.60;;;2.60;;
63874;SDS011;51595;24.180;-110.296;2022-11-04T06:55:18;31.88;;;2.78;;
63874;SDS011;51595;24.180;-110.296;2022-11-04T06:57:45;24.95;;;3.40;;
63874;SDS011;51595;24.180;-110.296;2022-11-04T07:00:11;21.52;;;3.15;;
63874;SDS011;51595;24.180;-110.296;2022-11-04T07:02:38;27.88;;;3.17;;
63874;SDS011;51595;24.180;-110.296;2022-11-04T07:05:05;19.23;;;3.08;;
63874;SDS011;51595;24.180;-110.296;2022-11-04T07:07:32;29.23;;;3.67;;
63874;SDS011;51595;24.180;-110.296;2022-11-04T07:09:58;21.92;;;3.20;;
63874;SDS011;51595;24.180;-110.296;2022-11-04T07:12:25;23.55;;;3.10;;
63874;SDS011;51595;24.180;-110.296;2022-11-04T07:14:51;20.73;;;3.47;;
63874;SDS011;51595;24.180;-110.296;2022-11-04T07:17:20;17.80;;;3.08;;
63874;SDS011;51595;24.180;-110.296;2022-11-04T07:19:46;23.75;;;4.28;;
63874;SDS011;51595;24.180;-110.296;2022-11-04T07:22:12;30.80;;;4.03;;
63874;SDS011;51595;24.180;-110.296;2022-11-04T07:24:39;17.42;;;2.95;;
63874;SDS011;51595;24.180;-110.296;2022-11-04T07:27:06;26.00;;;3.63;;
63874;SDS011;51595;24.180;-110.296;2022-11-04T07:29:32;21.55;;;3.75;;
63874;SDS011;51595;24.180;-110.296;2022-11-04T07:31:59;18.92;;;3.15;;
63874;SDS011;51595;24.180;-110.296;2022-11-04T07:34:25;20.67;;;2.90;;
63874;SDS011;51595;24.180;-110.296;2022-11-04T07:36:52;15.10;;;2.95;;
63874;SDS011;51595;24.180;-110.296;2022-11-04T07:39:19;23.33;;;2.83;;
63874;SDS011;51595;24.180;-110.296;2022-11-04T07:41:45;24.55;;;3.13;;
63874;SDS011;51595;24.180;-110.296;2022-11-04T07:44:12;16.15;;;3.15;;
63874;SDS011;51595;24.180;-110.296;2022-11-04T07:46:38;19.10;;;3.20;;
63874;SDS011;51595;24.180;-110.296;2022-11-04T07:49:05;27.75;;;3.95;;
63874;SDS011;51595;24.180;-110.296;2022-11-04T07:51:32;23.77;;;3.45;;
63874;SDS011;51595;24.180;-110.296;2022-11-04T07:53:59;28.92;;;3.58;;
63874;SDS011;51595;24.180;-110.296;2022-11-04T07:56:26;25.30;;;3.30;;
63874;SDS011;51595;24.180;-110.296;2022-11-04T07:58:52;28.30;;;4.38;;
63874;SDS011;51595;24.180;-110.296;2022-11-04T08:01:20;25.65;;;3.83;;
63874;SDS011;51595;24.180;-110.296;2022-11-04T08:03:47;24.63;;;3.85;;
63874;SDS011;51595;24.180;-110.296;2022-11-04T08:06:15;23.15;;;3.22;;
63874;SDS011;51595;24.180;-110.296;2022-11-04T08:08:42;18.65;;;3.40;;
63874;SDS011;51595;24.180;-110.296;2022-11-04T08:11:11;22.38;;;3.70;;
63874;SDS011;51595;24.180;-110.296;2022-11-04T08:13:42;26.02;;;3.72;;
63874;SDS011;51595;24.180;-110.296;2022-11-04T08:16:09;20.02;;;3.28;;
63874;SDS011;51595;24.180;-110.296;2022-11-04T08:18:39;19.95;;;3.03;;
63874;SDS011;51595;24.180;-110.296;2022-11-04T08:21:06;26.00;;;3.40;;
63874;SDS011;51595;24.180;-110.296;2022-11-04T08:23:33;27.55;;;4.03;;
63874;SDS011;51595;24.180;-110.296;2022-11-04T08:26:00;12.10;;;3.00;;
63874;SDS011;51595;24.180;-110.296;2022-11-04T08:28:27;20.25;;;3.63;;
63874;SDS011;51595;24.180;-110.296;2022-11-04T08:30:54;21.00;;;2.63;;
63874;SDS011;51595;24.180;-110.296;2022-11-04T08:33:22;18.13;;;3.00;;
63874;SDS011;51595;24.180;-110.296;2022-11-04T08:35:50;17.50;;;3.15;;
63874;SDS011;51595;24.180;-110.296;2022-11-04T08:38:17;14.32;;;2.55;;
63874;SDS011;51595;24.180;-110.296;2022-11-04T08:40:44;20.98;;;2.97;;
63874;SDS011;51595;24.180;-110.296;2022-11-04T08:43:11;19.33;;;2.92;;
63874;SDS011;51595;24.180;-110.296;2022-11-04T08:45:41;21.42;;;3.28;;
63874;SDS011;51595;24.180;-110.296;2022-11-04T08:48:09;15.25;;;2.97;;
63874;SDS011;51595;24.180;-110.296;2022-11-04T08:50:36;12.32;;;2.67;;
63874;SDS011;51595;24.180;-110.296;2022-11-04T08:53:03;27.13;;;3.70;;
63874;SDS011;51595;24.180;-110.296;2022-11-04T08:55:30;18.45;;;2.60;;
63874;SDS011;51595;24.180;-110.296;2022-11-04T08:57:57;16.73;;;2.60;;
63874;SDS011;51595;24.180;-110.296;2022-11-04T09:00:24;17.55;;;3.40;;
63874;SDS011;51595;24.180;-110.296;2022-11-04T09:02:51;13.18;;;3.38;;
63874;SDS011;51595;24.180;-110.296;2022-11-04T09:05:19;23.58;;;2.72;;
63874;SDS011;51595;24.180;-110.296;2022-11-04T09:07:46;31.48;;;3.97;;
63874;SDS011;51595;24.180;-110.296;2022-11-04T09:10:13;30.00;;;3.05;;
63874;SDS011;51595;24.180;-110.296;2022-11-04T09:12:40;23.35;;;3.20;;
63874;SDS011;51595;24.180;-110.296;2022-11-04T09:15:07;19.98;;;2.60;;
63874;SDS011;51595;24.180;-110.296;2022-11-04T09:17:34;17.33;;;2.70;;
63874;SDS011;51595;24.180;-110.296;2022-11-04T09:20:00;22.83;;;4.00;;
63874;SDS011;51595;24.180;-110.296;2022-11-04T09:22:27;18.10;;;3.17;;
63874;SDS011;51595;24.180;-110.296;2022-11-04T09:24:54;29.38;;;3.28;;
63874;SDS011;51595;24.180;-110.296;2022-11-04T09:27:20;20.38;;;4.10;;
63874;SDS011;51595;24.180;-110.296;2022-11-04T09:29:47;12.68;;;2.30;;
63874;SDS011;51595;24.180;-110.296;2022-11-04T09:32:13;17.10;;;2.67;;
63874;SDS011;51595;24.180;-110.296;2022-11-04T09:34:40;14.73;;;2.63;;
63874;SDS011;51595;24.180;-110.296;2022-11-04T09:37:06;25.88;;;3.08;;
63874;SDS011;51595;24.180;-110.296;2022-11-04T09:39:33;18.00;;;2.47;;
63874;SDS011;51595;24.180;-110.296;2022-11-04T09:45:08;16.38;;;2.80;;
63874;SDS011;51595;24.180;-110.296;2022-11-04T09:47:43;13.20;;;2.28;;
63874;SDS011;51595;24.180;-110.296;2022-11-04T09:50:22;16.58;;;2.50;;
63874;SDS011;51595;24.180;-110.296;2022-11-04T09:52:55;20.95;;;2.70;;
63874;SDS011;51595;24.180;-110.296;2022-11-04T09:55:36;16.10;;;2.60;;
63874;SDS011;51595;24.180;-110.296;2022-11-04T09:58:07;21.27;;;2.78;;
63874;SDS011;51595;24.180;-110.296;2022-11-04T10:00:36;14.20;;;2.53;;
63874;SDS011;51595;24.180;-110.296;2022-11-04T10:11:21;11.82;;;2.33;;
63874;SDS011;51595;24.180;-110.296;2022-11-04T10:17:05;11.80;;;2.03;;
63874;SDS011;51595;24.180;-110.296;2022-11-04T10:20:18;19.70;;;2.30;;
63874;SDS011;51595;24.180;-110.296;2022-11-04T10:25:32;13.18;;;2.33;;
63874;SDS011;51595;24.180;-110.296;2022-11-04T10:28:11;19.13;;;2.72;;
63874;SDS011;51595;24.180;-110.296;2022-11-04T10:30:41;12.45;;;2.67;;
63874;SDS011;51595;24.180;-110.296;2022-11-04T10:36:00;18.30;;;2.40;;
63874;SDS011;51595;24.180;-110.296;2022-11-04T10:38:50;8.45;;;2.22;;
63874;SDS011;51595;24.180;-110.296;2022-11-04T10:41:24;17.25;;;2.30;;
63874;SDS011;51595;24.180;-110.296;2022-11-04T10:44:00;15.07;;;2.85;;
63874;SDS011;51595;24.180;-110.296;2022-11-04T10:46:47;16.90;;;2.27;;
63874;SDS011;51595;24.180;-110.296;2022-11-04T10:49:36;11.77;;;2.53;;
63874;SDS011;51595;24.180;-110.296;2022-11-04T10:52:26;8.38;;;1.90;;
63874;SDS011;51595;24.180;-110.296;2022-11-04T10:54:52;10.90;;;1.83;;
63874;SDS011;51595;24.180;-110.296;2022-11-04T10:57:25;11.93;;;2.25;;
63874;SDS011;51595;24.180;-110.296;2022-11-04T10:59:56;13.98;;;2.17;;
63874;SDS011;51595;24.180;-110.296;2022-11-04T11:05:20;13.68;;;2.55;;
63874;SDS011;51595;24.180;-110.296;2022-11-04T11:07:53;13.32;;;2.38;;
63874;SDS011;51595;24.180;-110.296;2022-11-04T11:10:23;17.38;;;2.40;;
63874;SDS011;51595;24.180;-110.296;2022-11-04T11:12:56;10.95;;;2.38;;
63874;SDS011;51595;24.180;-110.296;2022-11-04T11:15:31;14.32;;;2.20;;
63874;SDS011;51595;24.180;-110.296;2022-11-04T11:18:18;21.08;;;3.05;;
63874;SDS011;51595;24.180;-110.296;2022-11-04T11:23:48;15.77;;;2.00;;
63874;SDS011;51595;24.180;-110.296;2022-11-04T11:26:19;15.43;;;2.53;;
63874;SDS011;51595;24.180;-110.296;2022-11-04T11:28:54;22.25;;;3.47;;
63874;SDS011;51595;24.180;-110.296;2022-11-04T11:31:33;19.70;;;2.70;;
63874;SDS011;51595;24.180;-110.296;2022-11-04T11:34:02;17.60;;;2.42;;
63874;SDS011;51595;24.180;-110.296;2022-11-04T11:36:32;13.48;;;2.00;;
63874;SDS011;51595;24.180;-110.296;2022-11-04T11:41:48;17.70;;;2.95;;
63874;SDS011;51595;24.180;-110.296;2022-11-04T11:44:25;16.02;;;2.40;;
63874;SDS011;51595;24.180;-110.296;2022-11-04T11:46:59;10.40;;;2.20;;
63874;SDS011;51595;24.180;-110.296;2022-11-04T11:49:34;15.05;;;2.60;;
63874;SDS011;51595;24.180;-110.296;2022-11-04T11:55:10;14.20;;;2.20;;
63874;SDS011;51595;24.180;-110.296;2022-11-04T12:00:49;14.65;;;2.17;;
63874;SDS011;51595;24.180;-110.296;2022-11-04T12:03:26;17.02;;;1.95;;
63874;SDS011;51595;24.180;-110.296;2022-11-04T12:11:19;10.20;;;2.33;;
63874;SDS011;51595;24.180;-110.296;2022-11-04T12:13:55;13.55;;;2.15;;
63874;SDS011;51595;24.180;-110.296;2022-11-04T12:16:47;18.48;;;2.55;;
63874;SDS011;51595;24.180;-110.296;2022-11-04T12:30:12;16.13;;;2.13;;
63874;SDS011;51595;24.180;-110.296;2022-11-04T12:41:27;12.48;;;2.53;;
63874;SDS011;51595;24.180;-110.296;2022-11-04T12:43:53;15.25;;;2.50;;
63874;SDS011;51595;24.180;-110.296;2022-11-04T12:46:35;16.95;;;2.78;;
63874;SDS011;51595;24.180;-110.296;2022-11-04T12:54:41;7.07;;;1.77;;
63874;SDS011;51595;24.180;-110.296;2022-11-04T12:58:03;15.05;;;2.08;;
63874;SDS011;51595;24.180;-110.296;2022-11-04T13:00:28;17.45;;;3.72;;
63874;SDS011;51595;24.180;-110.296;2022-11-04T13:03:09;13.55;;;3.10;;
63874;SDS011;51595;24.180;-110.296;2022-11-04T13:06:14;22.17;;;3.83;;
63874;SDS011;51595;24.180;-110.296;2022-11-04T13:14:22;22.95;;;4.15;;
63874;SDS011;51595;24.180;-110.296;2022-11-04T13:16:55;21.95;;;4.03;;
63874;SDS011;51595;24.180;-110.296;2022-11-04T13:22:15;24.23;;;3.90;;
63874;SDS011;51595;24.180;-110.296;2022-11-04T13:27:29;15.05;;;2.60;;
63874;SDS011;51595;24.180;-110.296;2022-11-04T13:35:46;17.58;;;2.20;;
63874;SDS011;51595;24.180;-110.296;2022-11-04T13:41:07;16.25;;;3.35;;
63874;SDS011;51595;24.180;-110.296;2022-11-04T13:43:55;20.08;;;3.10;;
63874;SDS011;51595;24.180;-110.296;2022-11-04T13:46:28;11.55;;;2.83;;
63874;SDS011;51595;24.180;-110.296;2022-11-04T13:51:32;20.38;;;3.88;;
63874;SDS011;51595;24.180;-110.296;2022-11-04T13:54:32;18.17;;;3.20;;
63874;SDS011;51595;24.180;-110.296;2022-11-04T14:02:55;17.30;;;3.00;;
63874;SDS011;51595;24.180;-110.296;2022-11-04T14:16:04;14.13;;;2.55;;
63874;SDS011;51595;24.180;-110.296;2022-11-04T14:18:37;14.60;;;2.72;;
63874;SDS011;51595;24.180;-110.296;2022-11-04T14:23:37;12.60;;;2.72;;
63874;SDS011;51595;24.180;-110.296;2022-11-04T14:26:09;17.05;;;2.90;;
63874;SDS011;51595;24.180;-110.296;2022-11-04T14:28:37;13.48;;;2.30;;
63874;SDS011;51595;24.180;-110.296;2022-11-04T14:31:06;12.43;;;2.50;;
63874;SDS011;51595;24.180;-110.296;2022-11-04T14:33:50;21.52;;;3.15;;
63874;SDS011;51595;24.180;-110.296;2022-11-04T14:36:23;27.17;;;3.47;;
63874;SDS011;51595;24.180;-110.296;2022-11-04T14:46:43;29.13;;;4.18;;
63874;SDS011;51595;24.180;-110.296;2022-11-04T14:52:23;25.92;;;4.40;;
63874;SDS011;51595;24.180;-110.296;2022-11-04T14:55:13;28.25;;;4.60;;
63874;SDS011;51595;24.180;-110.296;2022-11-04T14:57:44;23.17;;;5.22;;
63874;SDS011;51595;24.180;-110.296;2022-11-04T15:00:33;38.72;;;3.88;;
63874;SDS011;51595;24.180;-110.296;2022-11-04T15:08:37;30.05;;;4.95;;
63874;SDS011;51595;24.180;-110.296;2022-11-04T15:13:46;31.08;;;4.75;;
63874;SDS011;51595;24.180;-110.296;2022-11-04T15:16:18;32.42;;;4.82;;
63874;SDS011;51595;24.180;-110.296;2022-11-04T15:18:51;32.97;;;4.32;;
63874;SDS011;51595;24.180;-110.296;2022-11-04T15:21:20;31.85;;;5.13;;
63874;SDS011;51595;24.180;-110.296;2022-11-04T15:23:56;29.98;;;4.93;;
63874;SDS011;51595;24.180;-110.296;2022-11-04T15:26:29;24.08;;;4.05;;
63874;SDS011;51595;24.180;-110.296;2022-11-04T15:28:59;29.10;;;4.00;;
63874;SDS011;51595;24.180;-110.296;2022-11-04T15:31:34;52.30;;;5.78;;
63874;SDS011;51595;24.180;-110.296;2022-11-04T15:34:02;34.85;;;6.20;;
63874;SDS011;51595;24.180;-110.296;2022-11-04T15:36:32;35.70;;;5.40;;
63874;SDS011;51595;24.180;-110.296;2022-11-04T15:39:02;25.85;;;3.97;;
63874;SDS011;51595;24.180;-110.296;2022-11-04T15:41:51;30.25;;;6.25;;
63874;SDS011;51595;24.180;-110.296;2022-11-04T15:44:43;42.08;;;7.70;;
63874;SDS011;51595;24.180;-110.296;2022-11-04T15:49:42;54.55;;;6.65;;
63874;SDS011;51595;24.180;-110.296;2022-11-04T15:52:18;61.63;;;6.68;;
63874;SDS011;51595;24.180;-110.296;2022-11-04T15:54:50;49.05;;;7.80;;
63874;SDS011;51595;24.180;-110.296;2022-11-04T15:57:37;33.00;;;6.15;;
63874;SDS011;51595;24.180;-110.296;2022-11-04T16:00:06;41.72;;;6.22;;
63874;SDS011;51595;24.180;-110.296;2022-11-04T16:02:53;41.75;;;5.70;;
63874;SDS011;51595;24.180;-110.296;2022-11-04T16:07:48;31.20;;;4.90;;
63874;SDS011;51595;24.180;-110.296;2022-11-04T16:12:59;42.92;;;4.80;;
63874;SDS011;51595;24.180;-110.296;2022-11-04T16:15:31;30.70;;;4.38;;
63874;SDS011;51595;24.180;-110.296;2022-11-04T16:17:58;28.08;;;3.65;;
63874;SDS011;51595;24.180;-110.296;2022-11-04T16:20:25;30.73;;;4.43;;
63874;SDS011;51595;24.180;-110.296;2022-11-04T16:22:56;23.85;;;4.25;;
63874;SDS011;51595;24.180;-110.296;2022-11-04T16:25:26;37.13;;;4.53;;
63874;SDS011;51595;24.180;-110.296;2022-11-04T16:27:58;28.42;;;3.85;;
63874;SDS011;51595;24.180;-110.296;2022-11-04T16:30:29;18.02;;;3.58;;
63874;SDS011;51595;24.180;-110.296;2022-11-04T16:33:06;28.17;;;4.53;;
63874;SDS011;51595;24.180;-110.296;2022-11-04T16:35:35;23.77;;;4.07;;
63874;SDS011;51595;24.180;-110.296;2022-11-04T16:38:06;22.40;;;4.25;;
63874;SDS011;51595;24.180;-110.296;2022-11-04T16:40:33;13.40;;;2.50;;
63874;SDS011;51595;24.180;-110.296;2022-11-04T16:42:59;21.75;;;3.55;;
63874;SDS011;51595;24.180;-110.296;2022-11-04T16:45:27;17.33;;;3.65;;
63874;SDS011;51595;24.180;-110.296;2022-11-04T16:47:56;20.05;;;3.45;;
63874;SDS011;51595;24.180;-110.296;2022-11-04T16:50:23;17.25;;;3.75;;
63874;SDS011;51595;24.180;-110.296;2022-11-04T16:52:50;18.25;;;3.33;;
63874;SDS011;51595;24.180;-110.296;2022-11-04T16:55:18;38.78;;;4.97;;
63874;SDS011;51595;24.180;-110.296;2022-11-04T16:57:45;14.32;;;3.08;;
63874;SDS011;51595;24.180;-110.296;2022-11-04T17:00:20;18.27;;;3.08;;
63874;SDS011;51595;24.180;-110.296;2022-11-04T17:02:48;53.47;;;6.88;;
63874;SDS011;51595;24.180;-110.296;2022-11-04T17:05:16;18.08;;;2.47;;
63874;SDS011;51595;24.180;-110.296;2022-11-04T17:07:42;29.88;;;3.85;;
63874;SDS011;51595;24.180;-110.296;2022-11-04T17:10:11;42.38;;;5.45;;
63874;SDS011;51595;24.180;-110.296;2022-11-04T17:12:39;30.90;;;4.05;;